createdAt,value
2022-12-01T00:00:51.878Z,100048.72
2022-12-01T00:03:18.886Z,100033.91
2022-12-01T00:05:45.861Z,100010.78
2022-12-01T00:08:12.716Z,100031.13
2022-12-01T00:10:39.650Z,100018.16
2022-12-01T00:13:06.539Z,100033.22
2022-12-01T00:15:36.193Z,100040.69
2022-12-01T00:18:05.480Z,100034.16
2022-12-01T00:20:35.575Z,100016.13
2022-12-01T00:23:02.445Z,100034.03
2022-12-01T00:25:29.558Z,100038.88
2022-12-01T00:27:57.410Z,100035.59
2022-12-01T00:30:24.273Z,100036.06
2022-12-01T00:32:51.162Z,100032.78
2022-12-01T00:35:18.119Z,100035.75
2022-12-01T00:37:45.033Z,100037.84
2022-12-01T00:40:12.418Z,100042.41
2022-12-01T00:42:39.259Z,100029.91
2022-12-01T00:45:06.589Z,100037.50
2022-12-01T00:47:33.541Z,100033.41
2022-12-01T00:50:00.637Z,100032.84
2022-12-01T00:52:27.669Z,100041.16
2022-12-01T00:54:54.575Z,100038.13
2022-12-01T00:57:21.466Z,100036.47
2022-12-01T00:59:49.340Z,100030.75
2022-12-01T01:02:16.455Z,100029.13
2022-12-01T01:04:43.437Z,100029.13
2022-12-01T01:07:10.288Z,100027.25
2022-12-01T01:09:37.213Z,100023.28
2022-12-01T01:12:04.223Z,100023.28
2022-12-01T01:14:31.107Z,100024.09
2022-12-01T01:16:58.063Z,100032.16
2022-12-01T01:19:25.063Z,100022.81
2022-12-01T01:21:51.931Z,100022.00
2022-12-01T01:24:18.871Z,100024.91
2022-12-01T01:26:45.777Z,100025.16
2022-12-01T01:29:12.693Z,100015.00
2022-12-01T01:31:39.856Z,100012.44
2022-12-01T01:34:07.183Z,100017.22
2022-12-01T01:36:34.097Z,100009.41
2022-12-01T01:39:01.102Z,99999.38
2022-12-01T01:41:28.927Z,100001.00
2022-12-01T01:43:59.595Z,100002.03
2022-12-01T01:46:30.849Z,99975.34
2022-12-01T01:49:02.515Z,99971.06
2022-12-01T01:51:49.428Z,100002.41
2022-12-01T01:54:25.140Z,99968.50
2022-12-01T01:56:52.184Z,99965.59
2022-12-01T01:59:24.387Z,99987.63
2022-12-01T02:01:56.592Z,100002.69
2022-12-01T02:04:23.919Z,99999.19
2022-12-01T02:06:51.922Z,99996.72
2022-12-01T02:09:18.939Z,99995.31
2022-12-01T02:12:22.378Z,99998.91
2022-12-01T02:15:08.101Z,99994.50
2022-12-01T02:17:53.784Z,99998.91
2022-12-01T02:20:42.538Z,99998.34
2022-12-01T02:23:33.902Z,99991.59
2022-12-01T02:26:30.885Z,99994.06
2022-12-01T02:29:09.718Z,99995.00
2022-12-01T02:31:59.463Z,99988.00
2022-12-01T02:34:31.264Z,99984.72
2022-12-01T02:37:08.896Z,99983.44
2022-12-01T02:39:37.452Z,99977.50
2022-12-01T02:42:07.903Z,99974.47
2022-12-01T02:44:36.568Z,99979.63
2022-12-01T02:47:05.500Z,99943.69
2022-12-01T02:49:36.561Z,99969.09
2022-12-01T02:52:04.949Z,99972.03
2022-12-01T02:54:31.887Z,99972.84
2022-12-01T02:56:58.779Z,99961.50
2022-12-01T02:59:25.681Z,99969.69
2022-12-01T03:02:15.534Z,99972.97
2022-12-01T03:05:00.367Z,99965.13
2022-12-01T03:07:48.998Z,99964.91
2022-12-01T03:10:28.875Z,99952.38
2022-12-01T03:13:08.946Z,99913.66
2022-12-01T03:16:09.943Z,99949.59
2022-12-01T03:18:39.967Z,99947.56
2022-12-01T03:21:21.429Z,99943.88
2022-12-01T03:23:53.259Z,99909.09
2022-12-01T03:26:21.083Z,99936.19
2022-12-01T03:28:51.520Z,99952.13
2022-12-01T03:31:21.020Z,99949.41
2022-12-01T03:33:50.686Z,99947.50
2022-12-01T03:36:39.578Z,99948.06
2022-12-01T03:39:12.734Z,99948.75
2022-12-01T03:42:12.995Z,99952.72
2022-12-01T03:44:52.043Z,99920.94
2022-12-01T03:47:21.215Z,99952.53
2022-12-01T03:49:49.422Z,99949.75
2022-12-01T03:52:53.891Z,99952.91
2022-12-01T03:55:28.882Z,99961.16
2022-12-01T03:58:00.270Z,99953.78
2022-12-01T04:00:27.220Z,99959.88
2022-12-01T04:02:58.740Z,99959.47
2022-12-01T04:05:26.040Z,99962.28
2022-12-01T04:07:53.397Z,99958.00
2022-12-01T04:10:20.430Z,99949.47
2022-12-01T04:12:47.454Z,99946.84
2022-12-01T04:15:14.569Z,99955.56
2022-12-01T04:17:45.174Z,99957.53
2022-12-01T04:20:13.692Z,99949.16
2022-12-01T04:22:40.575Z,99953.88
2022-12-01T04:25:07.869Z,99933.31
2022-12-01T04:27:34.863Z,99953.41
2022-12-01T04:30:01.789Z,99955.59
2022-12-01T04:32:28.744Z,99958.03
2022-12-01T04:34:55.648Z,99952.91
2022-12-01T04:37:22.504Z,99954.81
2022-12-01T04:39:49.694Z,99955.09
2022-12-01T04:42:16.815Z,99958.31
2022-12-01T04:44:43.816Z,99952.13
2022-12-01T04:47:10.722Z,99954.81
2022-12-01T04:49:37.671Z,99949.66
2022-12-01T04:52:05.069Z,99951.28
2022-12-01T04:54:32.120Z,99956.41
2022-12-01T04:56:59.391Z,99954.13
2022-12-01T04:59:26.620Z,99957.50
2022-12-01T05:01:53.820Z,99938.41
2022-12-01T05:04:20.988Z,99951.97
2022-12-01T05:06:48.099Z,99957.66
2022-12-01T05:09:17.395Z,99953.88
2022-12-01T05:11:44.971Z,99961.22
2022-12-01T05:14:11.925Z,99953.38
2022-12-01T05:16:39.171Z,99953.91
2022-12-01T05:19:24.917Z,99961.81
2022-12-01T05:21:52.117Z,99962.63
2022-12-01T05:24:19.789Z,99958.81
2022-12-01T05:26:49.638Z,99958.03
2022-12-01T05:29:16.859Z,99959.13
2022-12-01T05:31:45.365Z,99935.53
2022-12-01T05:34:12.514Z,99967.31
2022-12-01T05:36:39.524Z,99965.19
2022-12-01T05:39:06.605Z,99960.88
2022-12-01T05:41:33.709Z,99967.28
2022-12-01T05:44:00.970Z,99963.28
2022-12-01T05:46:28.080Z,99958.19
2022-12-01T05:48:55.159Z,99957.88
2022-12-01T05:51:22.150Z,99960.09
2022-12-01T05:53:49.179Z,99964.31
2022-12-01T05:56:16.244Z,99965.41
2022-12-01T05:58:43.512Z,99954.56
2022-12-01T06:01:10.976Z,99955.75
2022-12-01T06:03:38.067Z,99958.66
2022-12-01T06:06:05.301Z,99958.41
2022-12-01T06:08:32.366Z,99962.31
2022-12-01T06:10:59.354Z,99962.41
2022-12-01T06:13:26.312Z,99959.56
2022-12-01T06:16:00.309Z,99961.69
2022-12-01T06:18:27.708Z,99966.81
2022-12-01T06:20:54.781Z,99957.00
2022-12-01T06:23:24.307Z,99958.63
2022-12-01T06:25:54.740Z,99956.56
2022-12-01T06:28:21.859Z,99959.63
2022-12-01T06:30:48.877Z,99958.38
2022-12-01T06:33:16.015Z,99956.91
2022-12-01T06:35:43.205Z,99965.47
2022-12-01T06:38:10.159Z,99965.75
2022-12-01T06:40:37.269Z,99960.59
2022-12-01T06:43:04.347Z,99958.53
2022-12-01T06:45:31.570Z,99958.34
2022-12-01T06:47:58.937Z,99963.69
2022-12-01T06:50:26.202Z,99972.03
2022-12-01T06:52:53.893Z,99948.81
2022-12-01T06:55:20.979Z,99946.75
2022-12-01T06:57:48.274Z,99976.25
2022-12-01T07:00:16.303Z,99981.41
2022-12-01T07:02:43.691Z,99981.19
2022-12-01T07:05:10.769Z,99985.38
2022-12-01T07:07:38.908Z,99985.47
2022-12-01T07:10:06.615Z,99990.59
2022-12-01T07:12:33.744Z,99981.72
2022-12-01T07:15:02.028Z,99994.44
2022-12-01T07:17:29.835Z,99988.59
2022-12-01T07:19:57.317Z,99987.66
2022-12-01T07:22:29.479Z,99970.09
2022-12-01T07:24:58.077Z,99991.22
2022-12-01T07:27:25.007Z,99998.59
2022-12-01T07:29:52.060Z,99996.47
2022-12-01T07:32:19.690Z,99999.97
2022-12-01T07:34:46.627Z,100004.63
2022-12-01T07:37:13.536Z,100003.63
2022-12-01T07:39:40.602Z,100007.31
2022-12-01T07:42:08.565Z,99999.22
2022-12-01T07:44:35.524Z,100004.34
2022-12-01T07:47:02.489Z,100007.19
2022-12-01T07:49:29.496Z,100010.38
2022-12-01T07:51:56.408Z,100006.63
2022-12-01T07:54:23.477Z,100005.84
2022-12-01T07:56:50.443Z,100001.50
2022-12-01T07:59:17.340Z,100009.63
2022-12-01T08:01:46.081Z,100009.69
2022-12-01T08:04:13.118Z,99961.44
2022-12-01T08:06:40.062Z,100008.00
2022-12-01T08:09:07.040Z,100011.44
2022-12-01T08:11:33.997Z,100005.06
2022-12-01T08:14:00.936Z,100008.06
2022-12-01T08:16:27.995Z,100012.81
2022-12-01T08:18:54.990Z,100016.72
2022-12-01T08:21:23.001Z,100010.22
2022-12-01T08:23:55.855Z,100014.44
2022-12-01T08:26:23.540Z,99994.59
2022-12-01T08:28:50.542Z,100002.56
2022-12-01T08:31:20.117Z,100002.47
2022-12-01T08:33:47.612Z,99971.41
2022-12-01T08:36:15.398Z,99985.09
2022-12-01T08:38:45.867Z,99994.09
2022-12-01T08:41:13.287Z,100000.31
2022-12-01T08:43:57.077Z,99998.16
2022-12-01T08:46:27.008Z,99994.81
2022-12-01T08:48:55.199Z,99970.34
2022-12-01T08:51:22.234Z,99989.41
2022-12-01T08:53:49.713Z,99996.44
2022-12-01T08:56:20.450Z,99986.69
2022-12-01T08:58:47.548Z,99983.56
2022-12-01T09:01:15.584Z,99991.13
2022-12-01T09:03:42.762Z,99985.69
2022-12-01T09:06:22.994Z,99958.13
2022-12-01T09:08:49.986Z,99986.97
2022-12-01T09:11:18.506Z,99985.41
2022-12-01T09:13:51.315Z,99984.75
2022-12-01T09:16:21.418Z,99980.41
2022-12-01T09:18:48.696Z,99963.66
2022-12-01T09:21:19.327Z,99976.16
2022-12-01T09:23:46.478Z,99986.03
2022-12-01T09:26:14.104Z,99978.09
2022-12-01T09:28:41.211Z,99973.75
2022-12-01T09:31:09.846Z,99956.66
2022-12-01T09:33:37.021Z,99951.25
2022-12-01T09:36:04.723Z,99976.38
2022-12-01T09:38:32.809Z,99977.91
2022-12-01T09:41:00.801Z,99970.97
2022-12-01T09:43:33.251Z,99979.25
2022-12-01T09:46:02.482Z,99964.47
2022-12-01T09:48:31.233Z,99970.84
2022-12-01T09:50:58.246Z,99971.53
2022-12-01T09:53:26.771Z,99964.75
2022-12-01T09:55:55.131Z,99967.41
2022-12-01T09:58:27.350Z,99965.13
2022-12-01T10:00:54.483Z,99964.97
2022-12-01T10:03:45.722Z,99959.69
2022-12-01T10:06:32.100Z,99925.25
2022-12-01T10:09:25.748Z,99930.13
2022-12-01T10:11:55.281Z,99960.91
2022-12-01T10:14:22.558Z,99960.78
2022-12-01T10:16:58.540Z,99964.31
2022-12-01T10:19:33.128Z,99957.22
2022-12-01T10:22:06.258Z,99961.56
2022-12-01T10:24:53.878Z,99961.69
2022-12-01T10:27:52.960Z,99960.41
2022-12-01T10:30:21.307Z,99952.03
2022-12-01T10:32:51.994Z,99959.50
2022-12-01T10:35:24.659Z,99952.41
2022-12-01T10:38:00.813Z,99930.44
2022-12-01T10:40:27.990Z,99952.97
2022-12-01T10:42:55.123Z,99952.97
2022-12-01T10:45:26.122Z,99944.41
2022-12-01T10:48:20.056Z,99948.91
2022-12-01T10:50:50.196Z,99939.06
2022-12-01T10:53:23.086Z,99940.00
2022-12-01T10:56:11.891Z,99944.38
2022-12-01T10:58:58.906Z,99948.72
2022-12-01T11:01:32.155Z,99914.91
2022-12-01T11:04:31.551Z,99946.78
2022-12-01T11:06:58.725Z,99949.88
2022-12-01T11:09:29.720Z,99941.28
2022-12-01T11:12:03.712Z,99945.63
2022-12-01T11:14:36.591Z,99943.22
2022-12-01T11:17:25.208Z,99941.28
2022-12-01T11:19:52.691Z,99941.63
2022-12-01T11:22:27.500Z,99931.56
2022-12-01T11:24:54.376Z,99940.97
2022-12-01T11:27:45.310Z,99931.75
2022-12-01T11:30:41.816Z,99940.81
2022-12-01T11:33:10.612Z,99932.59
2022-12-01T11:35:40.110Z,99927.91
2022-12-01T11:38:28.678Z,99903.31
2022-12-01T11:40:57.867Z,99927.59
2022-12-01T11:43:36.772Z,99926.47
2022-12-01T11:46:08.195Z,99906.81
2022-12-01T11:48:36.324Z,99912.78
2022-12-01T11:51:27.184Z,99935.31
2022-12-01T11:54:21.716Z,99934.50
2022-12-01T11:57:17.418Z,99923.88
2022-12-01T11:59:38.923Z,99920.63
2022-12-01T12:02:09.260Z,99931.16
2022-12-01T12:05:00.682Z,99923.22
2022-12-01T12:07:53.498Z,99922.44
2022-12-01T12:10:29.349Z,99931.00
2022-12-01T12:13:08.187Z,99923.22
2022-12-01T12:15:56.193Z,99927.63
2022-12-01T12:18:51.081Z,99923.09
2022-12-01T12:21:17.947Z,99933.00
2022-12-01T12:23:50.850Z,99929.25
2022-12-01T12:26:30.005Z,99930.44
2022-12-01T12:29:27.036Z,99907.81
2022-12-01T12:32:06.863Z,99931.50
2022-12-01T12:34:58.257Z,99935.38
2022-12-01T12:37:31.045Z,99926.69
2022-12-01T12:40:12.995Z,99935.38
2022-12-01T12:43:07.437Z,99921.47
2022-12-01T12:45:54.666Z,99922.88
2022-12-01T12:51:43.506Z,99919.38
2022-12-01T12:54:12.959Z,99925.41
2022-12-01T12:56:41.637Z,99931.69
2022-12-01T12:59:31.936Z,99925.06
2022-12-01T13:02:27.306Z,99930.75
2022-12-01T13:05:03.129Z,99936.56
2022-12-01T13:07:48.669Z,99926.38
2022-12-01T13:10:26.794Z,99927.00
2022-12-01T13:13:00.485Z,99930.72
2022-12-01T13:15:27.524Z,99915.56
2022-12-01T13:17:58.921Z,99911.84
2022-12-01T13:20:27.778Z,99919.84
2022-12-01T13:22:55.359Z,99907.63
2022-12-01T13:25:32.818Z,99930.91
2022-12-01T13:28:00.262Z,99915.59
2022-12-01T13:30:27.200Z,99917.84
2022-12-01T13:33:04.832Z,99925.75
2022-12-01T13:35:38.324Z,99925.75
2022-12-01T13:38:30.346Z,99924.00
2022-12-01T13:41:18.723Z,99931.09
2022-12-01T13:43:54.847Z,99926.72
2022-12-01T13:46:32.298Z,99918.34
2022-12-01T13:49:03.442Z,99929.31
2022-12-01T13:52:16.117Z,99922.00
2022-12-01T13:55:07.949Z,99925.91
2022-12-01T13:57:38.622Z,99935.28
2022-12-01T14:00:11.599Z,99934.00
2022-12-01T14:02:41.799Z,99935.94
2022-12-01T14:05:39.855Z,99940.63
2022-12-01T14:08:25.619Z,99939.84
2022-12-01T14:11:00.939Z,99939.41
2022-12-01T14:13:28.044Z,99936.66
2022-12-01T14:15:59.765Z,99913.19
2022-12-01T14:18:33.187Z,99939.63
2022-12-01T14:21:01.009Z,99905.75
2022-12-01T14:23:30.657Z,99936.78
2022-12-01T14:26:18.628Z,99935.94
2022-12-01T14:29:00.914Z,99939.19
2022-12-01T14:31:33.938Z,99936.31
2022-12-01T14:34:14.436Z,99935.81
2022-12-01T14:37:03.889Z,99932.44
2022-12-01T14:39:45.487Z,99936.91
2022-12-01T14:42:45.803Z,99906.16
2022-12-01T14:45:15.277Z,99929.91
2022-12-01T14:47:49.646Z,99931.84
2022-12-01T14:50:30.388Z,99933.66
2022-12-01T14:53:13.975Z,99932.72
2022-12-01T14:55:43.023Z,99931.44
2022-12-01T14:58:21.893Z,99908.38
2022-12-01T15:01:03.072Z,99928.53
2022-12-01T15:03:34.176Z,99925.47
2022-12-01T15:06:01.384Z,99930.31
2022-12-01T15:09:03.933Z,99929.28
2022-12-01T15:11:25.992Z,99902.94
2022-12-01T15:13:56.128Z,99932.44
2022-12-01T15:16:25.466Z,99928.34
2022-12-01T15:18:52.714Z,99930.06
2022-12-01T15:21:27.641Z,99926.22
2022-12-01T15:24:05.652Z,99927.63
2022-12-01T15:26:52.091Z,99921.63
2022-12-01T15:29:29.840Z,99921.91
2022-12-01T15:32:01.661Z,99913.94
2022-12-01T15:34:30.684Z,99921.97
2022-12-01T15:36:58.028Z,99922.72
2022-12-01T15:39:37.737Z,99888.06
2022-12-01T15:42:04.802Z,99935.09
2022-12-01T15:44:36.023Z,99925.81
2022-12-01T15:47:36.145Z,99922.84
2022-12-01T15:50:04.182Z,99935.72
2022-12-01T15:52:31.297Z,99927.59
2022-12-01T15:55:01.342Z,99926.28
2022-12-01T15:57:28.304Z,99931.19
2022-12-01T15:59:56.482Z,99902.56
2022-12-01T16:02:30.374Z,99925.09
2022-12-01T16:05:01.698Z,99932.16
2022-12-01T16:08:10.997Z,99931.06
2022-12-01T16:10:36.423Z,99938.09
2022-12-01T16:13:37.576Z,99938.91
2022-12-01T16:16:39.452Z,99939.97
2022-12-01T16:19:09.311Z,99944.56
2022-12-01T16:22:10.190Z,99948.47
2022-12-01T16:24:56.537Z,99938.03
2022-12-01T16:27:28.013Z,99934.38
2022-12-01T16:30:02.708Z,99928.78
2022-12-01T16:32:36.308Z,99933.56
2022-12-01T16:35:04.818Z,99935.13
2022-12-01T16:37:31.693Z,99933.63
2022-12-01T16:39:58.824Z,99934.88
2022-12-01T16:42:25.769Z,99932.22
2022-12-01T16:44:53.107Z,99933.63
2022-12-01T16:47:24.844Z,99933.25
2022-12-01T16:49:52.250Z,99928.13
2022-12-01T16:52:43.557Z,99921.69
2022-12-01T16:55:31.467Z,99922.84
2022-12-01T16:57:58.405Z,99924.81
2022-12-01T17:00:25.658Z,99932.69
2022-12-01T17:02:52.945Z,99922.97
2022-12-01T17:05:19.920Z,99896.03
2022-12-01T17:07:46.852Z,99923.31
2022-12-01T17:10:13.916Z,99903.69
2022-12-01T17:12:40.994Z,99925.38
2022-12-01T17:15:08.378Z,99929.00
2022-12-01T17:17:35.458Z,99920.66
2022-12-01T17:20:03.176Z,99927.78
2022-12-01T17:22:30.410Z,99931.66
2022-12-01T17:24:57.584Z,99925.22
2022-12-01T17:27:25.791Z,99928.56
2022-12-01T17:29:52.887Z,99926.44
2022-12-01T17:32:19.800Z,99919.72
2022-12-01T17:34:46.675Z,99924.38
2022-12-01T17:37:17.646Z,99926.81
2022-12-01T17:39:47.586Z,99898.53
2022-12-01T17:42:14.426Z,99922.84
2022-12-01T17:44:41.297Z,99922.31
2022-12-01T17:47:08.196Z,99924.53
2022-12-01T17:49:36.445Z,99922.41
2022-12-01T17:52:04.674Z,99914.84
2022-12-01T17:54:31.675Z,99916.25
2022-12-01T17:56:58.722Z,99910.13
2022-12-01T17:59:25.700Z,99914.22
2022-12-01T18:01:52.813Z,99912.09
2022-12-01T18:04:19.682Z,99913.22
2022-12-01T18:06:50.787Z,99925.44
2022-12-01T18:09:20.885Z,99915.69
2022-12-01T18:11:47.795Z,99905.41
2022-12-01T18:14:17.809Z,99886.50
2022-12-01T18:16:44.845Z,99905.97
2022-12-01T18:19:11.809Z,99906.81
2022-12-01T18:21:38.722Z,99913.06
2022-12-01T18:24:06.306Z,99906.84
2022-12-01T18:26:33.471Z,99882.22
2022-12-01T18:29:02.523Z,99900.06
2022-12-01T18:31:29.754Z,99904.69
2022-12-01T18:34:02.577Z,99899.53
2022-12-01T18:36:30.030Z,99904.69
2022-12-01T18:38:57.761Z,99901.72
2022-12-01T18:41:24.687Z,99908.25
2022-12-01T18:43:51.619Z,99904.97
2022-12-01T18:46:19.145Z,99883.34
2022-12-01T18:48:47.163Z,99891.75
2022-12-01T18:51:14.167Z,99897.97
2022-12-01T18:53:41.086Z,99893.09
2022-12-01T18:56:11.609Z,99894.44
2022-12-01T18:58:39.272Z,99889.03
2022-12-01T19:01:25.892Z,99891.22
2022-12-01T19:03:54.775Z,99896.88
2022-12-01T19:06:21.712Z,99890.66
2022-12-01T19:08:48.700Z,99890.66
2022-12-01T19:11:15.653Z,99888.50
2022-12-01T19:13:42.504Z,99885.78
2022-12-01T19:16:12.128Z,99887.94
2022-12-01T19:18:39.375Z,99886.88
2022-12-01T19:21:07.242Z,99897.13
2022-12-01T19:23:34.459Z,99892.56
2022-12-01T19:26:08.312Z,99898.22
2022-12-01T19:28:35.575Z,99899.81
2022-12-01T19:31:10.081Z,99899.56
2022-12-01T19:33:37.205Z,99898.47
2022-12-01T19:36:15.053Z,99894.66
2022-12-01T19:38:42.176Z,99900.03
2022-12-01T19:41:09.334Z,99868.88
2022-12-01T19:43:36.583Z,99894.31
2022-12-01T19:46:14.967Z,99890.53
2022-12-01T19:48:42.460Z,99895.91
2022-12-01T19:51:19.142Z,99891.03
2022-12-01T19:53:46.342Z,99895.34
2022-12-01T19:56:13.256Z,99902.59
2022-12-01T19:58:40.286Z,99885.84
2022-12-01T20:01:09.358Z,99880.44
2022-12-01T20:03:36.439Z,99884.22
2022-12-01T20:06:23.421Z,99886.88
2022-12-01T20:08:50.590Z,99887.13
2022-12-01T20:11:17.676Z,99896.88
2022-12-01T20:13:45.325Z,99892.25
2022-12-01T20:16:21.649Z,99898.16
2022-12-01T20:18:48.741Z,99886.25
2022-12-01T20:21:21.145Z,99894.34
2022-12-01T20:23:54.395Z,99887.81
2022-12-01T20:26:24.911Z,99892.84
2022-12-01T20:28:55.041Z,99893.16
2022-12-01T20:31:24.568Z,99898.00
2022-12-01T20:33:52.654Z,99895.53
2022-12-01T20:36:19.679Z,99896.09
2022-12-01T20:38:46.706Z,99893.63
2022-12-01T20:41:13.816Z,99855.94
2022-12-01T20:43:40.905Z,99902.72
2022-12-01T20:46:07.959Z,99881.09
2022-12-01T20:48:35.215Z,99888.09
2022-12-01T20:51:03.069Z,99887.00
2022-12-01T20:53:30.295Z,99881.81
2022-12-01T20:55:57.293Z,99886.38
2022-12-01T20:58:24.206Z,99885.03
2022-12-01T21:00:51.147Z,99891.75
2022-12-01T21:03:18.036Z,99884.16
2022-12-01T21:05:44.921Z,99887.69
2022-12-01T21:08:12.901Z,99882.25
2022-12-01T21:10:41.415Z,99881.97
2022-12-01T21:13:35.695Z,99878.94
2022-12-01T21:16:06.982Z,99876.47
2022-12-01T21:18:55.764Z,99884.56
2022-12-01T21:21:29.982Z,99888.28
2022-12-01T21:24:13.731Z,99885.25
2022-12-01T21:26:42.286Z,99891.41
2022-12-01T21:29:28.896Z,99881.13
2022-12-01T21:31:58.834Z,99885.97
2022-12-01T21:34:27.096Z,99876.22
2022-12-01T21:37:00.095Z,99878.94
2022-12-01T21:39:28.426Z,99880.25
2022-12-01T21:41:56.639Z,99887.31
2022-12-01T21:44:25.431Z,99889.19
2022-12-01T21:46:55.444Z,99883.22
2022-12-01T21:49:35.588Z,99888.88
2022-12-01T21:52:03.576Z,99887.81
2022-12-01T21:54:30.546Z,99889.13
2022-12-01T21:56:57.696Z,99883.47
2022-12-01T21:59:24.730Z,99891.81
2022-12-01T22:01:55.555Z,99890.19
2022-12-01T22:04:29.577Z,99889.06
2022-12-01T22:06:57.112Z,99889.06
2022-12-01T22:09:27.581Z,99885.81
2022-12-01T22:12:37.165Z,99880.94
2022-12-01T22:15:04.389Z,99879.00
2022-12-01T22:17:31.237Z,99859.41
2022-12-01T22:20:00.557Z,99871.13
2022-12-01T22:22:28.876Z,99871.38
2022-12-01T22:25:07.217Z,99882.41
2022-12-01T22:27:40.132Z,99881.03
2022-12-01T22:30:07.415Z,99872.91
2022-12-01T22:32:43.107Z,99871.50
2022-12-01T22:35:26.167Z,99875.28
2022-12-01T22:38:11.116Z,99872.28
2022-12-01T22:40:39.193Z,99871.41
2022-12-01T22:43:19.678Z,99874.63
2022-12-01T22:46:07.709Z,99872.44
2022-12-01T22:48:44.613Z,99868.34
2022-12-01T22:51:14.334Z,99870.72
2022-12-01T22:53:41.640Z,99868.53
2022-12-01T22:56:26.656Z,99856.94
2022-12-01T22:58:53.651Z,99858.75
2022-12-01T23:01:30.065Z,99860.56
2022-12-01T23:04:26.403Z,99851.63
2022-12-01T23:06:57.643Z,99855.88
2022-12-01T23:09:28.326Z,99848.31
2022-12-01T23:12:01.923Z,99804.94
2022-12-01T23:14:29.152Z,99847.19
2022-12-01T23:17:07.380Z,99813.00
2022-12-01T23:19:34.640Z,99837.72
2022-12-01T23:22:01.597Z,99833.91
2022-12-01T23:24:33.464Z,99808.09
2022-12-01T23:27:00.706Z,99832.03
2022-12-01T23:29:27.599Z,99835.53
2022-12-01T23:31:54.509Z,99838.53
2022-12-01T23:34:21.461Z,99830.47
2022-12-01T23:36:48.967Z,99805.97
2022-12-01T23:39:16.425Z,99839.03
2022-12-01T23:41:47.630Z,99837.06
2022-12-01T23:44:21.183Z,99830.34
2022-12-01T23:46:49.248Z,99834.03
2022-12-01T23:49:18.972Z,99834.84
2022-12-01T23:51:48.053Z,99842.34
2022-12-01T23:54:22.096Z,99840.94
2022-12-01T23:56:55.031Z,99836.34
2022-12-01T23:59:22.092Z,99833.88
